createdAt,value
2023-04-19T00:00:16.006Z,1.40
2023-04-19T00:02:44.526Z,1.27
2023-04-19T00:05:15.740Z,1.77
2023-04-19T00:07:44.052Z,1.53
2023-04-19T00:10:13.840Z,0.90
2023-04-19T00:12:42.099Z,1.90
2023-04-19T00:15:10.641Z,1.47
2023-04-19T00:17:39.095Z,1.33
2023-04-19T00:20:08.276Z,1.73
2023-04-19T00:22:36.511Z,1.30
2023-04-19T00:25:04.796Z,1.80
2023-04-19T00:27:34.481Z,1.53
2023-04-19T00:30:02.760Z,1.40
2023-04-19T00:32:31.066Z,1.13
2023-04-19T00:34:59.359Z,1.07
2023-04-19T00:37:27.632Z,1.40
2023-04-19T00:39:55.939Z,1.30
2023-04-19T00:42:24.213Z,1.27
2023-04-19T00:44:54.065Z,1.03
2023-04-19T00:47:22.307Z,1.70
2023-04-19T00:49:50.565Z,1.40
2023-04-19T00:52:18.850Z,1.43
2023-04-19T00:54:47.167Z,0.97
2023-04-19T00:57:15.438Z,1.30
2023-04-19T00:59:43.794Z,1.13
2023-04-19T01:02:13.488Z,0.97
2023-04-19T01:04:41.848Z,1.30
2023-04-19T01:07:10.479Z,1.40
2023-04-19T01:09:41.692Z,1.10
2023-04-19T01:12:09.974Z,1.20
2023-04-19T01:14:38.248Z,1.50
2023-04-19T01:17:07.418Z,1.00
2023-04-19T01:19:38.552Z,1.40
2023-04-19T01:22:06.997Z,1.10
2023-04-19T01:24:36.652Z,1.20
2023-04-19T01:27:04.885Z,1.30
2023-04-19T01:29:33.141Z,1.00
2023-04-19T01:32:01.562Z,0.83
2023-04-19T01:34:29.921Z,1.23
2023-04-19T01:36:58.144Z,1.20
2023-04-19T01:39:27.455Z,1.10
2023-04-19T01:41:57.137Z,1.30
2023-04-19T01:44:25.443Z,1.07
2023-04-19T01:46:53.740Z,2.07
2023-04-19T01:49:22.067Z,0.90
2023-04-19T01:51:50.661Z,0.90
2023-04-19T01:54:18.898Z,1.57
2023-04-19T01:56:47.155Z,0.90
2023-04-19T01:59:16.765Z,1.20
2023-04-19T02:01:45.017Z,1.17
2023-04-19T02:04:13.515Z,1.47
2023-04-19T02:06:42.028Z,1.53
2023-04-19T02:09:10.605Z,1.07
2023-04-19T02:11:38.874Z,1.47
2023-04-19T02:14:07.114Z,1.33
2023-04-19T02:16:36.831Z,1.07
2023-04-19T02:19:05.453Z,1.50
2023-04-19T02:21:33.677Z,1.17
2023-04-19T02:24:02.227Z,1.10
2023-04-19T02:26:30.494Z,1.00
2023-04-19T02:28:58.788Z,1.30
2023-04-19T02:31:27.143Z,1.70
2023-04-19T02:33:56.845Z,1.70
2023-04-19T02:36:25.069Z,1.77
2023-04-19T02:38:54.572Z,1.23
2023-04-19T02:41:22.889Z,1.40
2023-04-19T02:43:51.132Z,1.37
2023-04-19T02:46:19.428Z,1.27
2023-04-19T02:48:47.707Z,1.30
2023-04-19T02:51:18.275Z,1.20
2023-04-19T02:53:46.572Z,1.40
2023-04-19T02:56:15.614Z,1.53
2023-04-19T02:58:43.818Z,1.50
2023-04-19T03:01:12.172Z,1.80
2023-04-19T03:03:40.661Z,1.13
2023-04-19T03:06:09.253Z,1.27
2023-04-19T03:08:38.930Z,0.97
2023-04-19T03:11:07.288Z,1.10
2023-04-19T03:13:35.560Z,0.97
2023-04-19T03:16:03.859Z,1.37
2023-04-19T03:18:32.142Z,1.60
2023-04-19T03:21:00.591Z,1.30
2023-04-19T03:23:28.874Z,1.27
2023-04-19T03:25:58.495Z,1.10
2023-04-19T03:28:26.740Z,1.37
2023-04-19T03:30:55.014Z,1.10
2023-04-19T03:33:23.283Z,1.40
2023-04-19T03:35:51.572Z,1.23
2023-04-19T03:38:19.807Z,1.37
2023-04-19T03:40:48.196Z,0.93
2023-04-19T03:43:17.850Z,1.10
2023-04-19T03:45:46.066Z,1.27
2023-04-19T03:48:14.346Z,1.00
2023-04-19T03:50:42.570Z,1.00
2023-04-19T03:53:10.795Z,0.77
2023-04-19T03:55:38.990Z,1.40
2023-04-19T03:58:07.244Z,1.03
2023-04-19T04:00:36.903Z,1.47
2023-04-19T04:03:05.289Z,1.30
2023-04-19T04:05:33.880Z,1.23
2023-04-19T04:08:02.194Z,1.30
2023-04-19T04:10:30.448Z,0.93
2023-04-19T04:12:58.713Z,1.03
2023-04-19T04:15:26.934Z,1.10
2023-04-19T04:17:56.547Z,1.30
2023-04-19T04:20:24.803Z,1.10
2023-04-19T04:22:53.015Z,0.93
2023-04-19T04:25:23.144Z,1.30
2023-04-19T04:27:52.799Z,1.07
2023-04-19T04:30:21.079Z,0.87
2023-04-19T04:32:51.216Z,0.90
2023-04-19T04:35:21.238Z,0.70
2023-04-19T04:37:49.506Z,0.93
2023-04-19T04:40:18.011Z,1.27
2023-04-19T04:42:46.538Z,1.00
2023-04-19T04:45:18.119Z,1.30
2023-04-19T04:47:47.284Z,1.10
2023-04-19T04:50:15.555Z,1.00
2023-04-19T04:52:45.191Z,1.23
2023-04-19T04:55:13.449Z,1.10
2023-04-19T04:57:41.728Z,0.80
2023-04-19T05:00:10.705Z,1.03
2023-04-19T05:02:39.009Z,1.23
2023-04-19T05:05:07.787Z,1.10
2023-04-19T05:07:36.122Z,0.77
2023-04-19T05:10:06.029Z,0.80
2023-04-19T05:12:34.254Z,0.80
2023-04-19T05:15:02.483Z,0.90
2023-04-19T05:17:30.799Z,1.00
2023-04-19T05:19:59.036Z,1.07
2023-04-19T05:22:27.269Z,1.03
2023-04-19T05:24:55.930Z,1.20
2023-04-19T05:27:25.821Z,0.90
2023-04-19T05:29:54.197Z,1.40
2023-04-19T05:32:22.533Z,0.87
2023-04-19T05:34:50.817Z,1.27
2023-04-19T05:37:19.060Z,1.17
2023-04-19T05:39:47.314Z,0.80
2023-04-19T05:42:15.612Z,0.63
2023-04-19T05:44:45.261Z,1.07
2023-04-19T05:47:13.653Z,1.13
2023-04-19T05:49:43.232Z,0.83
2023-04-19T05:52:11.958Z,1.17
2023-04-19T05:54:40.229Z,0.60
2023-04-19T05:57:08.451Z,0.80
2023-04-19T05:59:36.683Z,1.07
2023-04-19T06:02:06.452Z,0.93
2023-04-19T06:04:34.908Z,1.00
2023-04-19T06:07:04.571Z,1.00
2023-04-19T06:09:34.357Z,1.03
2023-04-19T06:12:02.588Z,0.90
2023-04-19T06:14:31.136Z,1.10
2023-04-19T06:16:59.416Z,1.30
2023-04-19T06:19:29.020Z,1.33
2023-04-19T06:21:57.303Z,0.80
2023-04-19T06:24:25.598Z,1.07
2023-04-19T06:26:53.818Z,0.97
2023-04-19T06:29:23.714Z,1.00
2023-04-19T06:31:52.070Z,0.80
2023-04-19T06:34:20.647Z,0.80
2023-04-19T06:36:50.267Z,0.97
2023-04-19T06:39:18.543Z,0.90
2023-04-19T06:41:46.863Z,0.93
2023-04-19T06:44:15.280Z,1.10
2023-04-19T06:46:43.938Z,0.67
2023-04-19T06:49:12.221Z,0.80
2023-04-19T06:51:40.590Z,1.30
2023-04-19T06:54:10.203Z,0.80
2023-04-19T06:56:42.115Z,1.20
2023-04-19T06:59:10.411Z,0.90
2023-04-19T07:01:38.714Z,1.10
2023-04-19T07:04:07.606Z,0.83
2023-04-19T07:06:36.140Z,1.17
2023-04-19T07:09:04.491Z,1.10
2023-04-19T07:11:34.132Z,1.10
2023-04-19T07:14:02.465Z,1.27
2023-04-19T07:16:30.887Z,0.60
2023-04-19T07:18:59.241Z,0.90
2023-04-19T07:21:32.721Z,0.70
2023-04-19T07:24:00.996Z,1.23
2023-04-19T07:26:29.384Z,0.97
2023-04-19T07:28:58.963Z,1.00
2023-04-19T07:31:27.279Z,0.63
2023-04-19T07:33:55.527Z,1.00
2023-04-19T07:36:23.777Z,0.80
2023-04-19T07:38:52.276Z,0.90
2023-04-19T07:41:20.537Z,1.23
2023-04-19T07:43:48.861Z,0.70
2023-04-19T07:46:18.674Z,1.30
2023-04-19T07:48:47.252Z,0.90
2023-04-19T07:51:16.406Z,1.20
2023-04-19T07:53:45.132Z,1.03
2023-04-19T07:56:14.311Z,0.77
2023-04-19T07:58:43.849Z,1.13
2023-04-19T08:01:12.358Z,0.60
2023-04-19T08:03:42.237Z,0.90
2023-04-19T08:06:10.786Z,1.03
2023-04-19T08:08:39.071Z,1.00
2023-04-19T08:11:07.347Z,0.60
2023-04-19T08:13:35.991Z,1.17
2023-04-19T08:16:40.027Z,0.80
2023-04-19T08:18:53.866Z,1.10
2023-04-19T08:21:26.033Z,1.23
2023-04-19T08:23:59.505Z,0.87
2023-04-19T08:26:27.870Z,1.03
2023-04-19T08:28:56.097Z,0.73
2023-04-19T08:31:24.426Z,0.87
2023-04-19T08:33:54.032Z,0.80
2023-04-19T08:36:35.369Z,0.80
2023-04-19T08:39:14.833Z,1.07
2023-04-19T08:41:48.185Z,0.80
2023-04-19T08:44:32.738Z,0.90
2023-04-19T08:47:04.602Z,0.97
2023-04-19T08:49:34.393Z,0.80
2023-04-19T08:52:03.196Z,0.80
2023-04-19T08:54:31.449Z,0.73
2023-04-19T08:56:59.865Z,0.90
2023-04-19T08:59:28.777Z,0.90
2023-04-19T09:01:59.231Z,1.23
2023-04-19T09:04:36.960Z,0.70
2023-04-19T09:07:08.269Z,0.70
2023-04-19T09:09:45.683Z,0.83
2023-04-19T09:12:20.173Z,0.77
2023-04-19T09:17:19.808Z,0.87
2023-04-19T09:19:48.194Z,0.83
2023-04-19T09:22:18.153Z,1.00
2023-04-19T09:27:18.535Z,0.80
2023-04-19T09:29:48.674Z,1.10
2023-04-19T09:32:16.943Z,0.67
2023-04-19T09:34:47.706Z,0.90
2023-04-19T09:37:29.639Z,0.70
2023-04-19T09:40:24.103Z,0.87
2023-04-19T09:43:05.242Z,0.80
2023-04-19T09:45:43.995Z,0.53
2023-04-19T09:48:12.554Z,0.90
2023-04-19T09:50:58.298Z,1.00
2023-04-19T09:53:29.038Z,0.63
2023-04-19T09:56:01.982Z,0.70
2023-04-19T09:58:42.592Z,0.90
2023-04-19T10:01:17.919Z,1.00
2023-04-19T10:03:47.099Z,0.90
2023-04-19T10:06:36.014Z,0.50
2023-04-19T10:09:05.203Z,0.87
2023-04-19T10:11:38.848Z,0.80
2023-04-19T10:14:07.822Z,0.90
2023-04-19T10:16:36.313Z,0.80
2023-04-19T10:19:05.002Z,0.67
2023-04-19T10:21:33.742Z,0.80
2023-04-19T10:24:01.986Z,0.80
2023-04-19T10:26:30.572Z,1.10
2023-04-19T10:29:00.287Z,0.90
2023-04-19T10:31:28.613Z,1.13
2023-04-19T10:33:57.588Z,1.10
2023-04-19T10:36:27.404Z,0.80
2023-04-19T10:38:56.117Z,0.60
2023-04-19T10:41:24.332Z,0.93
2023-04-19T10:44:07.484Z,0.70
2023-04-19T10:46:41.099Z,0.40
2023-04-19T10:49:09.874Z,0.70
2023-04-19T10:51:38.747Z,0.73
2023-04-19T10:54:07.404Z,0.50
2023-04-19T10:56:54.399Z,0.97
2023-04-19T10:59:22.868Z,0.70
2023-04-19T11:01:53.342Z,0.53
2023-04-19T11:04:23.312Z,0.70
2023-04-19T11:07:04.198Z,0.80
2023-04-19T11:09:34.499Z,0.60
2023-04-19T11:12:03.455Z,0.70
2023-04-19T11:14:34.938Z,0.80
2023-04-19T11:17:05.564Z,0.40
2023-04-19T11:19:33.932Z,0.93
2023-04-19T11:22:02.176Z,0.43
2023-04-19T11:24:30.489Z,0.60
2023-04-19T11:26:59.023Z,0.50
2023-04-19T11:29:27.284Z,0.50
2023-04-19T11:31:55.556Z,0.50
2023-04-19T11:34:28.286Z,0.70
2023-04-19T11:36:56.508Z,0.40
2023-04-19T11:39:24.728Z,0.60
2023-04-19T11:41:53.014Z,0.80
2023-04-19T11:44:21.596Z,0.40
2023-04-19T11:46:59.400Z,0.40
2023-04-19T11:49:29.394Z,0.60
2023-04-19T11:51:58.792Z,0.57
2023-04-19T11:54:27.215Z,0.40
2023-04-19T11:57:01.979Z,0.40
2023-04-19T11:59:30.432Z,0.30
2023-04-19T12:01:58.717Z,0.47
2023-04-19T12:04:28.453Z,0.63
2023-04-19T12:07:01.374Z,0.50
2023-04-19T12:09:29.675Z,0.50
2023-04-19T12:11:58.374Z,0.47
2023-04-19T12:14:26.947Z,0.40
2023-04-19T12:17:07.814Z,0.70
2023-04-19T12:19:39.190Z,0.67
2023-04-19T12:22:12.412Z,0.40
2023-04-19T12:24:40.877Z,0.57
2023-04-19T12:27:09.123Z,0.40
2023-04-19T12:29:39.160Z,0.47
2023-04-19T12:32:07.813Z,0.20
2023-04-19T12:34:36.187Z,0.33
2023-04-19T12:37:04.767Z,0.33
2023-04-19T12:39:34.564Z,0.40
2023-04-19T12:42:02.905Z,0.40
2023-04-19T12:44:31.154Z,0.33
2023-04-19T12:46:59.430Z,0.60
2023-04-19T12:49:27.706Z,0.50
2023-04-19T12:51:57.445Z,0.50
2023-04-19T12:54:25.986Z,0.60
2023-04-19T12:56:56.091Z,0.50
2023-04-19T12:59:24.339Z,0.53
2023-04-19T13:01:52.662Z,0.60
2023-04-19T13:04:21.241Z,0.30
2023-04-19T13:06:49.779Z,0.80
2023-04-19T13:09:18.162Z,0.30
2023-04-19T13:11:46.427Z,0.50
2023-04-19T13:14:16.251Z,0.27
2023-04-19T13:16:44.675Z,0.40
2023-04-19T13:19:12.910Z,0.50
2023-04-19T13:21:41.162Z,0.40
2023-04-19T13:24:09.607Z,0.40
2023-04-19T13:26:37.945Z,0.33
2023-04-19T13:29:08.399Z,0.30
2023-04-19T13:31:38.056Z,0.70
2023-04-19T13:34:06.378Z,0.37
2023-04-19T13:36:34.818Z,0.27
2023-04-19T13:39:03.059Z,0.20
2023-04-19T13:41:31.283Z,0.30
2023-04-19T13:43:59.555Z,0.40
2023-04-19T13:46:27.859Z,0.40
2023-04-19T13:48:57.509Z,0.50
2023-04-19T13:51:27.955Z,0.40
2023-04-19T13:53:59.494Z,0.30
2023-04-19T13:56:27.706Z,0.60
2023-04-19T13:58:55.930Z,0.40
2023-04-19T14:01:24.258Z,0.50
2023-04-19T14:03:53.043Z,0.40
2023-04-19T14:06:22.794Z,0.43
2023-04-19T14:08:51.485Z,0.47
2023-04-19T14:11:19.751Z,0.20
2023-04-19T14:13:48.364Z,0.30
2023-04-19T14:16:16.730Z,0.50
2023-04-19T14:18:45.064Z,0.40
2023-04-19T14:21:13.307Z,0.30
2023-04-19T14:23:42.926Z,0.40
2023-04-19T14:26:11.168Z,0.50
2023-04-19T14:28:39.448Z,0.37
2023-04-19T14:31:07.719Z,0.40
2023-04-19T14:33:36.079Z,0.63
2023-04-19T14:36:04.653Z,0.50
2023-04-19T14:38:33.785Z,0.30
2023-04-19T14:41:03.746Z,0.43
2023-04-19T14:43:32.945Z,0.43
2023-04-19T14:46:01.286Z,0.40
2023-04-19T14:48:29.536Z,0.30
2023-04-19T14:50:57.878Z,0.40
2023-04-19T14:53:26.119Z,0.60
2023-04-19T14:55:54.424Z,0.47
2023-04-19T14:58:24.043Z,0.70
2023-04-19T15:00:52.318Z,0.30
2023-04-19T15:03:20.726Z,0.50
2023-04-19T15:05:49.356Z,0.33
2023-04-19T15:10:51.887Z,0.40
2023-04-19T15:13:20.136Z,0.60
2023-04-19T15:15:49.776Z,0.43
2023-04-19T15:18:18.094Z,0.40
2023-04-19T15:20:46.481Z,0.50
2023-04-19T15:23:14.694Z,0.30
2023-04-19T15:25:43.045Z,0.40
2023-04-19T15:28:11.268Z,0.60
2023-04-19T15:30:39.487Z,0.50
2023-04-19T15:33:09.549Z,0.30
2023-04-19T15:35:37.839Z,0.50
2023-04-19T15:38:06.047Z,0.30
2023-04-19T15:40:38.375Z,0.47
2023-04-19T15:43:06.706Z,0.50
2023-04-19T15:45:34.956Z,0.53
2023-04-19T15:48:03.318Z,0.47
2023-04-19T15:50:33.004Z,0.47
2023-04-19T15:53:01.246Z,0.43
2023-04-19T15:55:29.519Z,0.60
2023-04-19T15:57:57.760Z,0.70
2023-04-19T16:00:26.631Z,0.57
2023-04-19T16:02:55.139Z,0.60
2023-04-19T16:05:23.461Z,0.60
2023-04-19T16:08:03.702Z,0.73
2023-04-19T16:10:32.067Z,0.37
2023-04-19T16:13:00.389Z,0.63
2023-04-19T16:15:29.065Z,0.60
2023-04-19T16:17:57.347Z,0.47
2023-04-19T16:20:25.630Z,0.43
2023-04-19T16:22:53.895Z,0.50
2023-04-19T16:25:23.498Z,0.60
2023-04-19T16:27:51.837Z,0.40
2023-04-19T16:30:20.079Z,0.50
2023-04-19T16:32:48.393Z,0.40
2023-04-19T16:35:18.230Z,0.87
2023-04-19T16:37:46.511Z,0.70
2023-04-19T16:40:14.799Z,0.77
2023-04-19T16:42:44.404Z,0.77
2023-04-19T16:45:12.855Z,1.20
2023-04-19T16:47:41.230Z,1.33
2023-04-19T16:50:09.895Z,1.10
2023-04-19T16:52:38.220Z,0.77
2023-04-19T16:55:06.819Z,1.30
2023-04-19T16:57:35.028Z,0.90
2023-04-19T17:00:05.759Z,1.27
2023-04-19T17:02:34.434Z,1.27
2023-04-19T17:05:02.973Z,0.90
2023-04-19T17:07:31.349Z,1.83
2023-04-19T17:09:59.950Z,1.00
2023-04-19T17:12:28.259Z,0.90
2023-04-19T17:14:56.544Z,0.70
2023-04-19T17:17:26.168Z,1.00
2023-04-19T17:19:56.873Z,1.10
2023-04-19T17:22:25.251Z,1.23
2023-04-19T17:24:54.216Z,1.03
2023-04-19T17:27:22.520Z,0.83
2023-04-19T17:29:50.747Z,0.97
2023-04-19T17:32:19.011Z,1.13
2023-04-19T17:34:48.683Z,1.30
2023-04-19T17:37:16.956Z,1.43
2023-04-19T17:39:45.302Z,1.73
2023-04-19T17:42:13.642Z,1.43
2023-04-19T17:44:41.919Z,0.70
2023-04-19T17:47:10.234Z,1.00
2023-04-19T17:49:38.495Z,1.10
2023-04-19T17:52:08.107Z,1.03
2023-04-19T17:54:36.371Z,0.77
2023-04-19T17:57:05.024Z,1.00
2023-04-19T17:59:33.277Z,0.87
2023-04-19T18:02:02.336Z,1.13
2023-04-19T18:04:31.125Z,1.13
2023-04-19T18:06:59.488Z,0.77
2023-04-19T18:09:29.121Z,0.67
2023-04-19T18:11:57.812Z,1.03
2023-04-19T18:14:26.037Z,0.97
2023-04-19T18:16:54.468Z,0.83
2023-04-19T18:19:23.967Z,0.80
2023-04-19T18:21:52.220Z,1.10
2023-04-19T18:24:20.764Z,1.50
2023-04-19T18:26:50.499Z,0.80
2023-04-19T18:29:20.746Z,0.83
2023-04-19T18:31:49.100Z,1.30
2023-04-19T18:34:17.509Z,0.97
2023-04-19T18:36:46.058Z,1.70
2023-04-19T18:39:14.453Z,0.90
2023-04-19T18:41:42.899Z,1.53
2023-04-19T18:44:38.838Z,0.93
2023-04-19T18:47:00.900Z,1.23
2023-04-19T18:49:29.223Z,1.10
2023-04-19T18:51:57.502Z,1.30
2023-04-19T18:54:25.740Z,1.00
2023-04-19T18:59:26.907Z,1.30
2023-04-19T19:01:56.791Z,0.83
2023-04-19T19:04:42.659Z,1.30
2023-04-19T19:07:27.672Z,1.37
2023-04-19T19:10:06.377Z,1.17
2023-04-19T19:12:45.110Z,1.07
2023-04-19T19:15:14.768Z,1.67
2023-04-19T19:17:43.697Z,1.60
2023-04-19T19:20:12.512Z,1.03
2023-04-19T19:22:40.754Z,1.30
2023-04-19T19:25:09.267Z,1.43
2023-04-19T19:27:38.787Z,1.53
2023-04-19T19:30:08.635Z,1.43
2023-04-19T19:32:39.957Z,1.17
2023-04-19T19:35:09.593Z,2.00
2023-04-19T19:37:37.909Z,1.30
2023-04-19T19:40:07.289Z,1.03
2023-04-19T19:42:35.581Z,1.50
2023-04-19T19:45:04.165Z,1.40
2023-04-19T19:47:35.331Z,1.37
2023-04-19T19:50:50.626Z,1.00
2023-04-19T19:52:54.031Z,1.73
2023-04-19T19:55:22.363Z,1.40
2023-04-19T20:00:42.487Z,1.60
2023-04-19T20:03:10.937Z,1.17
2023-04-19T20:05:41.493Z,1.07
2023-04-19T20:08:11.847Z,1.13
2023-04-19T20:10:40.761Z,1.10
2023-04-19T20:13:09.387Z,1.13
2023-04-19T20:15:37.990Z,1.20
2023-04-19T20:18:06.300Z,1.07
2023-04-19T20:20:35.158Z,1.00
2023-04-19T20:23:04.756Z,1.13
2023-04-19T20:25:33.448Z,1.03
2023-04-19T20:28:01.986Z,1.00
2023-04-19T20:30:30.330Z,1.37
2023-04-19T20:32:58.694Z,2.07
2023-04-19T20:35:28.712Z,1.00
2023-04-19T20:38:02.308Z,1.10
2023-04-19T20:40:32.242Z,0.93
2023-04-19T20:43:00.937Z,1.30
2023-04-19T20:45:29.826Z,1.50
2023-04-19T20:47:58.744Z,1.20
2023-04-19T20:50:27.095Z,1.27
2023-04-19T20:52:55.348Z,1.17
2023-04-19T20:55:23.707Z,1.00
2023-04-19T20:57:53.348Z,1.13
2023-04-19T21:00:21.795Z,1.10
2023-04-19T21:02:50.630Z,1.00
2023-04-19T21:05:18.977Z,1.20
2023-04-19T21:07:47.304Z,1.33
2023-04-19T21:10:17.210Z,1.30
2023-04-19T21:12:45.926Z,1.03
2023-04-19T21:15:15.553Z,1.07
2023-04-19T21:17:43.948Z,1.30
2023-04-19T21:20:17.979Z,1.10
2023-04-19T21:22:46.805Z,1.00
2023-04-19T21:25:15.076Z,1.20
2023-04-19T21:27:43.412Z,1.03
2023-04-19T21:30:12.138Z,1.07
2023-04-19T21:32:41.854Z,1.10
2023-04-19T21:35:10.644Z,1.33
2023-04-19T21:37:38.974Z,1.00
2023-04-19T21:40:07.873Z,0.77
2023-04-19T21:42:36.195Z,0.80
2023-04-19T21:45:04.891Z,0.87
2023-04-19T21:47:33.196Z,1.40
2023-04-19T21:50:02.811Z,1.43
2023-04-19T21:52:31.089Z,1.00
2023-04-19T21:54:59.326Z,1.23
2023-04-19T21:57:27.679Z,1.03
2023-04-19T21:59:55.968Z,0.90
2023-04-19T22:02:24.489Z,0.67
2023-04-19T22:04:53.876Z,0.93
2023-04-19T22:07:23.982Z,0.80
2023-04-19T22:09:52.351Z,0.90
2023-04-19T22:12:20.637Z,1.00
2023-04-19T22:14:48.917Z,0.90
2023-04-19T22:17:18.495Z,1.03
2023-04-19T22:19:46.928Z,0.70
2023-04-19T22:22:15.191Z,0.90
2023-04-19T22:24:56.913Z,1.10
2023-04-19T22:27:26.131Z,0.93
2023-04-19T22:29:54.560Z,0.97
2023-04-19T22:32:23.114Z,1.37
2023-04-19T22:34:51.622Z,0.70
2023-04-19T22:37:19.873Z,1.17
2023-04-19T22:39:49.479Z,0.80
2023-04-19T22:42:17.764Z,0.80
2023-04-19T22:44:46.062Z,0.90
2023-04-19T22:47:14.454Z,1.00
2023-04-19T22:49:43.459Z,1.27
2023-04-19T22:52:12.045Z,0.57
2023-04-19T22:54:40.327Z,0.97
2023-04-19T22:57:11.171Z,0.80
2023-04-19T22:59:39.439Z,0.80
2023-04-19T23:02:07.789Z,1.00
2023-04-19T23:04:36.178Z,0.90
2023-04-19T23:07:04.835Z,1.20
2023-04-19T23:09:33.093Z,1.20
2023-04-19T23:12:01.583Z,0.87
2023-04-19T23:14:31.362Z,0.80
2023-04-19T23:17:00.640Z,0.77
2023-04-19T23:19:30.361Z,1.27
2023-04-19T23:21:58.629Z,0.83
2023-04-19T23:24:26.913Z,1.20
2023-04-19T23:26:55.161Z,1.20
2023-04-19T23:29:23.419Z,0.93
2023-04-19T23:31:53.137Z,1.20
2023-04-19T23:34:21.459Z,1.00
2023-04-19T23:36:49.705Z,1.07
2023-04-19T23:39:18.156Z,1.10
2023-04-19T23:41:46.827Z,1.10
2023-04-19T23:44:15.087Z,0.80
2023-04-19T23:46:43.373Z,1.00
2023-04-19T23:49:12.982Z,1.07
2023-04-19T23:51:41.202Z,1.20
2023-04-19T23:54:09.509Z,0.90
2023-04-19T23:56:37.760Z,0.90
2023-04-19T23:59:06.024Z,0.90
